createdAt,value
2016-11-16T00:00:43.889Z,36.56
2016-11-16T00:01:52.902Z,36.56
2016-11-16T00:03:01.933Z,36.66
2016-11-16T00:04:10.952Z,36.85
2016-11-16T00:05:19.683Z,36.66
2016-11-16T00:06:28.393Z,36.85
2016-11-16T00:07:37.107Z,36.76
2016-11-16T00:08:46.123Z,36.76
2016-11-16T00:09:55.151Z,36.56
2016-11-16T00:11:03.887Z,36.47
2016-11-16T00:12:13.530Z,36.56
2016-11-16T00:13:22.588Z,36.66
2016-11-16T00:14:31.606Z,36.66
2016-11-16T00:15:40.647Z,36.66
2016-11-16T00:16:50.269Z,36.66
2016-11-16T00:17:59.330Z,36.66
2016-11-16T00:19:08.383Z,36.66
2016-11-16T00:20:17.116Z,36.66
2016-11-16T00:21:26.497Z,36.76
2016-11-16T00:22:35.532Z,36.66
2016-11-16T00:23:45.198Z,36.56
2016-11-16T00:24:54.227Z,36.56
2016-11-16T00:26:02.979Z,36.85
2016-11-16T00:27:12.051Z,36.56
2016-11-16T00:28:21.380Z,36.66
2016-11-16T00:29:30.407Z,36.76
2016-11-16T00:30:39.731Z,36.85
2016-11-16T00:31:48.746Z,36.95
2016-11-16T00:32:57.763Z,36.56
2016-11-16T00:34:06.792Z,36.95
2016-11-16T00:35:16.152Z,36.66
2016-11-16T00:36:25.487Z,36.95
2016-11-16T00:37:34.519Z,36.85
2016-11-16T00:38:43.895Z,36.95
2016-11-16T00:39:52.638Z,36.95
2016-11-16T00:41:01.364Z,36.85
2016-11-16T00:42:10.116Z,36.85
2016-11-16T00:43:18.841Z,36.95
2016-11-16T00:44:27.857Z,36.95
2016-11-16T00:45:36.583Z,37.04
2016-11-16T00:46:45.288Z,36.85
2016-11-16T00:47:53.986Z,36.95
2016-11-16T00:49:03.035Z,36.95
2016-11-16T00:50:12.435Z,37.04
2016-11-16T00:51:21.771Z,37.04
2016-11-16T00:52:31.128Z,36.95
2016-11-16T00:53:39.815Z,36.95
2016-11-16T00:54:49.187Z,36.85
2016-11-16T00:55:58.019Z,37.04
2016-11-16T00:57:07.041Z,36.95
2016-11-16T00:58:16.059Z,36.85
2016-11-16T00:59:25.058Z,36.95
2016-11-16T01:00:33.832Z,36.85
2016-11-16T01:01:42.834Z,36.85
2016-11-16T01:02:51.855Z,36.95
2016-11-16T01:04:01.514Z,36.95
2016-11-16T01:05:10.236Z,36.85
2016-11-16T01:06:19.857Z,37.14
2016-11-16T01:07:28.585Z,36.95
2016-11-16T01:08:37.607Z,37.04
2016-11-16T01:09:46.330Z,37.04
2016-11-16T01:10:55.702Z,36.95
2016-11-16T01:12:04.725Z,37.14
2016-11-16T01:13:13.807Z,36.85
2016-11-16T01:14:22.504Z,36.76
2016-11-16T01:15:31.215Z,36.95
2016-11-16T01:16:40.250Z,37.04
2016-11-16T01:17:49.886Z,36.95
2016-11-16T01:18:58.897Z,37.04
2016-11-16T01:20:07.910Z,36.95
2016-11-16T01:21:17.295Z,37.04
2016-11-16T01:22:26.342Z,37.14
2016-11-16T01:23:35.373Z,37.04
2016-11-16T01:24:44.392Z,37.04
2016-11-16T01:25:53.422Z,36.85
2016-11-16T01:27:03.340Z,37.04
2016-11-16T01:28:12.360Z,37.04
2016-11-16T01:29:21.406Z,37.14
2016-11-16T01:30:30.441Z,37.14
2016-11-16T01:31:39.175Z,36.95
2016-11-16T01:32:48.163Z,36.95
2016-11-16T01:33:56.874Z,37.14
2016-11-16T01:35:05.898Z,37.24
2016-11-16T01:36:14.930Z,37.14
2016-11-16T01:37:23.990Z,37.04
2016-11-16T01:38:32.706Z,36.95
2016-11-16T01:39:41.723Z,37.04
2016-11-16T01:40:50.451Z,37.04
2016-11-16T01:41:59.510Z,37.14
2016-11-16T01:43:08.821Z,36.95
2016-11-16T01:44:17.830Z,37.24
2016-11-16T01:45:26.862Z,37.04
2016-11-16T01:46:36.481Z,37.04
2016-11-16T01:47:45.500Z,37.14
2016-11-16T01:48:54.497Z,37.04
2016-11-16T01:50:04.147Z,37.14
2016-11-16T01:51:13.480Z,37.04
2016-11-16T01:52:22.196Z,36.76
2016-11-16T01:53:31.215Z,37.04
2016-11-16T01:54:40.565Z,37.04
2016-11-16T01:55:49.268Z,37.04
2016-11-16T01:56:58.315Z,36.95
2016-11-16T01:58:07.333Z,36.85
2016-11-16T01:59:16.948Z,36.76
2016-11-16T02:00:25.701Z,36.85
2016-11-16T02:01:34.402Z,37.04
2016-11-16T02:02:43.749Z,36.85
2016-11-16T02:03:52.777Z,36.76
2016-11-16T02:05:01.476Z,36.85
2016-11-16T02:06:10.505Z,36.95
2016-11-16T02:07:19.891Z,36.76
2016-11-16T02:08:28.600Z,36.76
2016-11-16T02:09:37.615Z,36.85
2016-11-16T02:10:46.978Z,36.76
2016-11-16T02:11:56.311Z,37.14
2016-11-16T02:13:05.701Z,36.85
2016-11-16T02:14:14.775Z,36.85
2016-11-16T02:15:24.742Z,37.04
2016-11-16T02:16:33.799Z,37.24
2016-11-16T02:17:42.831Z,37.04
2016-11-16T02:18:51.888Z,37.04
2016-11-16T02:20:01.211Z,36.95
2016-11-16T02:21:10.229Z,36.95
2016-11-16T02:22:19.242Z,36.95
2016-11-16T02:23:28.258Z,37.04
2016-11-16T02:24:36.980Z,36.95
2016-11-16T02:25:46.613Z,37.24
2016-11-16T02:26:55.649Z,37.14
2016-11-16T02:28:04.964Z,37.14
2016-11-16T02:29:14.006Z,37.24
2016-11-16T02:30:22.722Z,37.14
2016-11-16T02:31:31.730Z,36.95
2016-11-16T02:32:40.742Z,37.14
2016-11-16T02:33:50.125Z,37.14
2016-11-16T02:34:59.139Z,37.14
2016-11-16T02:36:07.843Z,37.14
2016-11-16T02:37:16.561Z,37.14
2016-11-16T02:38:25.576Z,37.14
2016-11-16T02:39:34.583Z,37.14
2016-11-16T02:40:43.320Z,37.24
2016-11-16T02:41:52.343Z,37.14
2016-11-16T02:43:01.372Z,37.14
2016-11-16T02:44:10.112Z,37.14
2016-11-16T02:45:19.142Z,37.14
2016-11-16T02:46:27.839Z,37.14
2016-11-16T02:47:36.850Z,37.24
2016-11-16T02:48:45.851Z,37.14
2016-11-16T02:49:54.878Z,37.24
2016-11-16T02:51:03.627Z,37.34
2016-11-16T02:52:12.660Z,37.24
2016-11-16T02:53:22.012Z,37.14
2016-11-16T02:54:31.333Z,37.14
2016-11-16T02:55:40.360Z,37.14
2016-11-16T02:56:50.026Z,37.14
2016-11-16T02:57:58.751Z,37.14
2016-11-16T02:59:07.503Z,37.14
2016-11-16T03:00:16.811Z,37.14
2016-11-16T03:01:25.857Z,37.24
2016-11-16T03:02:35.155Z,37.14
2016-11-16T03:03:44.168Z,37.34
2016-11-16T03:04:52.850Z,37.14
2016-11-16T03:06:01.846Z,37.14
2016-11-16T03:07:10.863Z,37.24
2016-11-16T03:08:20.524Z,37.24
2016-11-16T03:09:29.302Z,37.34
2016-11-16T03:10:38.641Z,37.24
2016-11-16T03:11:47.678Z,37.14
2016-11-16T03:12:56.720Z,37.14
2016-11-16T03:14:06.052Z,37.24
2016-11-16T03:15:14.752Z,37.34
2016-11-16T03:16:24.077Z,37.24
2016-11-16T03:17:32.791Z,37.24
2016-11-16T03:18:41.792Z,37.34
2016-11-16T03:19:51.476Z,37.24
2016-11-16T03:21:00.567Z,37.24
2016-11-16T03:22:09.623Z,37.34
2016-11-16T03:23:18.656Z,37.24
2016-11-16T03:24:27.699Z,37.14
2016-11-16T03:25:36.401Z,37.14
2016-11-16T03:26:45.797Z,37.24
2016-11-16T03:27:55.119Z,37.24
2016-11-16T03:29:04.155Z,37.14
2016-11-16T03:30:13.214Z,37.24
2016-11-16T03:31:22.962Z,37.24
2016-11-16T03:32:32.016Z,37.24
2016-11-16T03:33:40.738Z,37.24
2016-11-16T03:34:50.087Z,37.14
2016-11-16T03:35:58.851Z,37.14
2016-11-16T03:37:07.856Z,37.24
2016-11-16T03:38:16.573Z,37.14
2016-11-16T03:39:25.404Z,37.24
2016-11-16T03:40:34.776Z,37.43
2016-11-16T03:41:44.124Z,37.43
2016-11-16T03:42:52.871Z,37.43
2016-11-16T03:44:01.832Z,37.43
2016-11-16T03:45:11.300Z,37.24
2016-11-16T03:46:20.042Z,37.24
2016-11-16T03:47:29.722Z,37.34
2016-11-16T03:48:38.475Z,37.34
2016-11-16T03:49:48.412Z,37.43
2016-11-16T03:50:57.447Z,37.43
2016-11-16T03:52:06.790Z,37.43
2016-11-16T03:53:15.804Z,37.43
2016-11-16T03:54:25.472Z,37.52
2016-11-16T03:55:34.848Z,37.43
2016-11-16T03:56:43.850Z,37.43
2016-11-16T03:57:52.909Z,37.52
2016-11-16T03:59:02.248Z,37.43
2016-11-16T04:00:10.986Z,37.34
2016-11-16T04:01:20.043Z,37.43
2016-11-16T04:02:29.057Z,37.52
2016-11-16T04:03:38.123Z,37.43
2016-11-16T04:04:47.461Z,37.52
2016-11-16T04:05:56.285Z,37.52
2016-11-16T04:07:05.301Z,37.52
2016-11-16T04:08:14.609Z,37.52
2016-11-16T04:09:23.957Z,37.52
2016-11-16T04:10:32.966Z,37.43
2016-11-16T04:11:41.735Z,37.62
2016-11-16T04:12:50.543Z,37.43
2016-11-16T04:13:59.265Z,37.43
2016-11-16T04:15:07.998Z,37.52
2016-11-16T04:16:16.737Z,37.52
2016-11-16T04:17:26.366Z,37.52
2016-11-16T04:18:35.433Z,37.43
2016-11-16T04:19:44.181Z,37.43
2016-11-16T04:20:53.201Z,37.43
2016-11-16T04:22:02.228Z,37.43
2016-11-16T04:23:11.022Z,37.52
2016-11-16T04:24:20.082Z,37.52
2016-11-16T04:25:29.127Z,37.43
2016-11-16T04:26:38.478Z,37.52
2016-11-16T04:27:47.849Z,37.52
2016-11-16T04:28:56.907Z,37.62
2016-11-16T04:30:05.640Z,37.52
2016-11-16T04:31:14.734Z,37.52
2016-11-16T04:32:23.487Z,37.62
2016-11-16T04:33:32.872Z,37.52
2016-11-16T04:34:42.191Z,37.62
2016-11-16T04:35:51.819Z,37.43
2016-11-16T04:37:01.499Z,37.62
2016-11-16T04:38:10.876Z,37.52
2016-11-16T04:39:19.599Z,37.62
2016-11-16T04:40:28.335Z,37.52
2016-11-16T04:41:37.073Z,37.52
2016-11-16T04:42:46.126Z,37.52
2016-11-16T04:43:55.188Z,37.52
2016-11-16T04:45:04.024Z,37.72
2016-11-16T04:46:13.651Z,37.43
2016-11-16T04:47:22.722Z,37.62
2016-11-16T04:48:31.431Z,37.52
2016-11-16T04:49:40.752Z,37.52
2016-11-16T04:50:49.443Z,37.52
2016-11-16T04:51:58.169Z,37.62
2016-11-16T04:53:07.180Z,37.62
2016-11-16T04:54:16.205Z,37.62
2016-11-16T04:55:25.229Z,37.62
2016-11-16T04:56:34.252Z,37.52
2016-11-16T04:57:43.672Z,37.62
2016-11-16T04:58:53.294Z,37.24
2016-11-16T05:00:02.638Z,37.34
2016-11-16T05:01:11.666Z,37.6
2016-11-16T05:02:20.695Z,37.72
2016-11-16T05:03:30.046Z,37.72
2016-11-16T05:04:39.094Z,37.62
2016-11-16T05:05:48.111Z,37.72
2016-11-16T05:06:56.854Z,37.72
2016-11-16T05:08:06.192Z,37.62
2016-11-16T05:09:15.548Z,37.72
2016-11-16T05:10:24.364Z,37.72
2016-11-16T05:11:33.751Z,37.62
2016-11-16T05:12:42.804Z,37.72
2016-11-16T05:13:52.179Z,37.62
2016-11-16T05:15:01.290Z,37.72
2016-11-16T05:16:10.689Z,37.72
2016-11-16T05:17:19.744Z,37.72
2016-11-16T05:18:28.793Z,37.81
2016-11-16T05:19:37.506Z,37.62
2016-11-16T05:20:46.291Z,37.72
2016-11-16T05:21:55.289Z,37.72
2016-11-16T05:23:04.310Z,37.72
2016-11-16T05:24:13.335Z,37.72
2016-11-16T05:25:22.083Z,37.72
2016-11-16T05:26:31.142Z,37.72
2016-11-16T05:27:40.205Z,37.72
2016-11-16T05:28:48.902Z,37.7
2016-11-16T05:29:58.224Z,37.81
2016-11-16T05:31:07.281Z,37.7
2016-11-16T05:32:16.013Z,37.91
2016-11-16T05:33:24.732Z,37.62
2016-11-16T05:34:33.807Z,37.62
2016-11-16T05:35:43.129Z,37.7
2016-11-16T05:36:51.823Z,37.81
2016-11-16T05:38:00.863Z,37.72
2016-11-16T05:39:10.546Z,37.72
2016-11-16T05:40:19.647Z,37.81
2016-11-16T05:41:28.668Z,37.72
2016-11-16T05:42:37.420Z,37.72
2016-11-16T05:43:46.167Z,37.62
2016-11-16T05:44:55.818Z,37.6
2016-11-16T05:46:05.175Z,37.81
2016-11-16T05:47:13.902Z,37.72
2016-11-16T05:48:23.226Z,37.62
2016-11-16T05:49:32.247Z,37.62
2016-11-16T05:50:41.916Z,37.62
2016-11-16T05:51:51.229Z,37.81
2016-11-16T05:53:00.247Z,37.72
2016-11-16T05:54:09.297Z,37.72
2016-11-16T05:55:18.340Z,37.43
2016-11-16T05:56:27.644Z,37.43
2016-11-16T05:57:37.005Z,37.34
2016-11-16T05:58:45.709Z,37.24
2016-11-16T05:59:54.425Z,37.14
2016-11-16T06:01:03.144Z,36.95
2016-11-16T06:02:12.191Z,37.06
2016-11-16T06:03:21.307Z,36.97
2016-11-16T06:04:30.322Z,36.87
2016-11-16T06:05:39.000Z,36.97
2016-11-16T06:06:48.015Z,36.87
2016-11-16T06:07:57.102Z,36.77
2016-11-16T06:09:06.129Z,36.58
2016-11-16T06:10:15.142Z,36.39
2016-11-16T06:11:24.195Z,36.39
2016-11-16T06:12:33.548Z,36.11
2016-11-16T06:13:42.556Z,36.31
2016-11-16T06:14:51.249Z,36.21
2016-11-16T06:16:00.573Z,36.21
2016-11-16T06:17:09.284Z,36.21
2016-11-16T06:18:18.315Z,36.11
2016-11-16T06:19:27.322Z,35.93
2016-11-16T06:20:36.933Z,35.73
2016-11-16T06:21:45.948Z,35.93
2016-11-16T06:22:54.717Z,35.83
2016-11-16T06:24:04.031Z,35.73
2016-11-16T06:25:13.036Z,35.46
2016-11-16T06:26:22.046Z,35.56
2016-11-16T06:27:30.754Z,35.73
2016-11-16T06:28:39.793Z,35.36
2016-11-16T06:29:48.488Z,35.46
2016-11-16T06:30:57.223Z,35.46
2016-11-16T06:32:06.226Z,35.46
2016-11-16T06:33:15.234Z,35.17
2016-11-16T06:34:23.971Z,35.17
2016-11-16T06:35:32.986Z,35.17
2016-11-16T06:36:41.695Z,35.08
2016-11-16T06:37:51.035Z,35.17
2016-11-16T06:38:59.754Z,35.27
2016-11-16T06:40:09.093Z,35.19
2016-11-16T06:41:18.417Z,35.19
2016-11-16T06:42:27.422Z,35.19
2016-11-16T06:43:36.727Z,35.1
2016-11-16T06:44:45.757Z,35.1
2016-11-16T06:45:54.766Z,35
2016-11-16T06:47:03.783Z,35.19
2016-11-16T06:48:13.103Z,35
2016-11-16T06:49:23.040Z,35
2016-11-16T06:50:32.345Z,35
2016-11-16T06:51:41.352Z,35
2016-11-16T06:52:50.675Z,35.1
2016-11-16T06:53:59.731Z,35.19
2016-11-16T06:55:09.058Z,35.1
2016-11-16T06:56:17.758Z,35.19
2016-11-16T06:57:26.492Z,35.28
2016-11-16T06:58:35.513Z,35.21
2016-11-16T06:59:44.266Z,35.1
2016-11-16T07:00:53.634Z,35.28
2016-11-16T07:02:02.642Z,35.21
2016-11-16T07:03:11.712Z,35.21
2016-11-16T07:04:20.821Z,35.21
2016-11-16T07:05:30.128Z,34.82
2016-11-16T07:06:39.135Z,34.82
2016-11-16T07:07:48.137Z,34.82
2016-11-16T07:08:57.213Z,34.63
2016-11-16T07:10:06.235Z,34.63
2016-11-16T07:11:15.281Z,34.92
2016-11-16T07:12:24.307Z,34.53
2016-11-16T07:13:33.365Z,34.53
2016-11-16T07:14:42.380Z,34.44
2016-11-16T07:15:51.418Z,34.44
2016-11-16T07:17:00.150Z,34.44
2016-11-16T07:18:08.841Z,34.44
2016-11-16T07:19:18.458Z,35.11
2016-11-16T07:20:27.458Z,34.53
2016-11-16T07:21:36.472Z,34.55
2016-11-16T07:22:45.492Z,34.53
2016-11-16T07:23:54.218Z,34.55
2016-11-16T07:25:03.238Z,34.36
2016-11-16T07:26:12.256Z,34.55
2016-11-16T07:27:21.260Z,34.64
2016-11-16T07:28:30.557Z,34.45
2016-11-16T07:29:39.916Z,34.55
2016-11-16T07:30:48.626Z,34.74
2016-11-16T07:31:57.938Z,34.55
2016-11-16T07:33:06.654Z,34.64
2016-11-16T07:34:15.703Z,34.64
2016-11-16T07:35:24.776Z,34.74
2016-11-16T07:36:33.827Z,34.84
2016-11-16T07:37:43.811Z,35.22
2016-11-16T07:38:52.838Z,35.22
2016-11-16T07:40:01.530Z,35.13
2016-11-16T07:41:10.592Z,35.22
2016-11-16T07:42:19.599Z,35.13
2016-11-16T07:43:28.600Z,35.03
2016-11-16T07:44:37.640Z,35.03
2016-11-16T07:45:46.963Z,35.03
2016-11-16T07:46:55.980Z,35.11
2016-11-16T07:48:05.606Z,35.03
2016-11-16T07:49:14.380Z,35.13
2016-11-16T07:50:23.156Z,35.13
2016-11-16T07:51:32.208Z,35.03
2016-11-16T07:52:40.959Z,35.03
2016-11-16T07:53:49.659Z,35.03
2016-11-16T07:54:58.378Z,35.13
2016-11-16T07:56:07.398Z,35.13
2016-11-16T07:57:16.390Z,35.22
2016-11-16T07:58:25.108Z,35.22
2016-11-16T07:59:34.098Z,35.13
2016-11-16T08:00:43.132Z,35.03
2016-11-16T08:01:52.142Z,35.03
2016-11-16T08:03:01.179Z,35.22
2016-11-16T08:04:10.485Z,35.32
2016-11-16T08:05:19.796Z,35.22
2016-11-16T08:06:28.804Z,35.13
2016-11-16T08:07:38.121Z,35.22
2016-11-16T08:08:47.146Z,35.32
2016-11-16T08:09:56.757Z,35.32
2016-11-16T08:11:05.756Z,35.22
2016-11-16T08:12:15.082Z,35.22
2016-11-16T08:13:24.379Z,35.13
2016-11-16T08:14:33.703Z,35.32
2016-11-16T08:15:43.065Z,35.22
2016-11-16T08:16:52.373Z,35.13
2016-11-16T08:18:01.374Z,35.13
2016-11-16T08:19:10.390Z,35.32
2016-11-16T08:20:19.714Z,35.03
2016-11-16T08:21:29.043Z,35.22
2016-11-16T08:22:38.058Z,34.86
2016-11-16T08:23:47.445Z,34.76
2016-11-16T08:24:57.149Z,35.24
2016-11-16T08:26:06.237Z,35.24
2016-11-16T08:27:15.654Z,34.95
2016-11-16T08:28:25.349Z,35.14
2016-11-16T08:29:34.696Z,35.14
2016-11-16T08:30:43.456Z,35.22
2016-11-16T08:31:52.768Z,35.42
2016-11-16T08:33:02.133Z,35.52
2016-11-16T08:34:11.816Z,35.52
2016-11-16T08:35:20.845Z,35.61
2016-11-16T08:36:29.580Z,35.61
2016-11-16T08:37:38.969Z,35.71
2016-11-16T08:38:48.324Z,35.9
2016-11-16T08:39:57.377Z,36
2016-11-16T08:41:06.400Z,36.29
2016-11-16T08:42:15.802Z,36.19
2016-11-16T08:43:24.820Z,36.48
2016-11-16T08:44:34.270Z,36.09
2016-11-16T08:45:43.028Z,36.38
2016-11-16T08:46:52.392Z,36.48
2016-11-16T08:48:01.738Z,36.55
2016-11-16T08:49:11.127Z,36.65
2016-11-16T08:50:20.149Z,36.85
2016-11-16T08:51:29.262Z,36.75
2016-11-16T08:52:38.333Z,36.77
2016-11-16T08:53:47.075Z,36.75
2016-11-16T08:54:56.123Z,37.04
2016-11-16T08:56:04.834Z,37.04
2016-11-16T08:57:13.635Z,37.23
2016-11-16T08:58:22.692Z,36.85
2016-11-16T08:59:32.109Z,37.04
2016-11-16T09:00:41.150Z,36.94
2016-11-16T09:01:50.156Z,36.85
2016-11-16T09:02:59.295Z,37.13
2016-11-16T09:04:08.380Z,37.23
2016-11-16T09:05:17.432Z,37.23
2016-11-16T09:06:26.495Z,37.43
2016-11-16T09:07:35.248Z,37.23
2016-11-16T09:08:44.316Z,37.43
2016-11-16T09:09:53.406Z,37.62
2016-11-16T09:11:02.141Z,37.5
2016-11-16T09:12:11.515Z,37.5
2016-11-16T09:13:20.641Z,37.6
2016-11-16T09:14:29.995Z,37.79
2016-11-16T09:15:39.985Z,37.7
2016-11-16T09:16:49.618Z,37.7
2016-11-16T09:17:58.684Z,37.79
2016-11-16T09:19:07.824Z,37.89
2016-11-16T09:20:16.925Z,37.5
2016-11-16T09:21:26.013Z,37.79
2016-11-16T09:22:34.835Z,37.6
2016-11-16T09:23:44.110Z,37.6
2016-11-16T09:24:53.537Z,37.7
2016-11-16T09:26:02.377Z,37.7
2016-11-16T09:27:11.089Z,37.79
2016-11-16T09:28:20.119Z,37.6
2016-11-16T09:29:28.888Z,37.7
2016-11-16T09:30:37.927Z,37.89
2016-11-16T09:31:47.283Z,37.7
2016-11-16T09:32:56.396Z,37.7
2016-11-16T09:34:05.785Z,37.7
2016-11-16T09:35:15.171Z,37.79
2016-11-16T09:36:24.015Z,37.79
2016-11-16T09:37:33.398Z,38.08
2016-11-16T09:38:42.427Z,37.96
2016-11-16T09:39:51.485Z,37.89
2016-11-16T09:41:00.905Z,38.08
2016-11-16T09:42:09.980Z,37.98
2016-11-16T09:43:19.014Z,37.98
2016-11-16T09:44:28.022Z,37.98
2016-11-16T09:45:36.732Z,38.08
2016-11-16T09:46:45.526Z,38.56
2016-11-16T09:47:54.878Z,38.35
2016-11-16T09:49:03.582Z,38.46
2016-11-16T09:50:12.401Z,38.56
2016-11-16T09:51:21.169Z,38.54
2016-11-16T09:52:30.516Z,38.45
2016-11-16T09:53:39.522Z,38.26
2016-11-16T09:54:48.288Z,38.45
2016-11-16T09:55:57.295Z,38.28
2016-11-16T09:57:06.034Z,38.26
2016-11-16T09:58:15.080Z,38.35
2016-11-16T09:59:23.852Z,38.35
2016-11-16T10:00:32.887Z,38.45
2016-11-16T10:01:41.955Z,38.16
2016-11-16T10:02:51.180Z,38.16
2016-11-16T10:04:00.250Z,38.16
2016-11-16T10:05:09.627Z,38.26
2016-11-16T10:06:19.008Z,38.26
2016-11-16T10:07:28.090Z,38.26
2016-11-16T10:08:37.182Z,38.26
2016-11-16T10:09:45.923Z,38.26
2016-11-16T10:10:55.348Z,38.16
2016-11-16T10:12:05.325Z,38.35
2016-11-16T10:13:14.389Z,38.16
2016-11-16T10:14:23.159Z,38.35
2016-11-16T10:15:32.179Z,38.16
2016-11-16T10:16:41.207Z,38.54
2016-11-16T10:17:50.233Z,38.26
2016-11-16T10:18:59.251Z,38.64
2016-11-16T10:20:08.242Z,38.35
2016-11-16T10:21:16.988Z,38.54
2016-11-16T10:22:27.282Z,38.54
2016-11-16T10:23:36.343Z,38.54
2016-11-16T10:24:45.058Z,38.64
2016-11-16T10:25:54.064Z,38.54
2016-11-16T10:27:03.411Z,38.54
2016-11-16T10:28:12.462Z,38.54
2016-11-16T10:29:21.548Z,38.45
2016-11-16T10:30:31.166Z,38.45
2016-11-16T10:31:40.200Z,38.45
2016-11-16T10:32:49.525Z,38.45
2016-11-16T10:33:58.642Z,38.54
2016-11-16T10:35:07.387Z,38.54
2016-11-16T10:36:16.796Z,38.54
2016-11-16T10:37:25.877Z,38.64
2016-11-16T10:38:35.247Z,38.45
2016-11-16T10:39:44.261Z,38.54
2016-11-16T10:40:53.894Z,38.74
2016-11-16T10:42:02.920Z,38.74
2016-11-16T10:43:11.929Z,38.64
2016-11-16T10:44:21.254Z,38.45
2016-11-16T10:45:30.313Z,38.64
2016-11-16T10:46:39.043Z,38.54
2016-11-16T10:47:48.683Z,38.54
2016-11-16T10:48:57.752Z,38.83
2016-11-16T10:50:06.786Z,38.45
2016-11-16T10:51:15.821Z,38.83
2016-11-16T10:52:24.522Z,38.54
2016-11-16T10:53:33.602Z,38.54
2016-11-16T10:54:42.662Z,38.54
2016-11-16T10:55:51.744Z,38.54
2016-11-16T10:57:00.771Z,38.74
2016-11-16T10:58:09.476Z,38.74
2016-11-16T10:59:18.531Z,38.64
2016-11-16T11:00:27.951Z,38.74
2016-11-16T11:01:37.032Z,38.64
2016-11-16T11:02:46.018Z,38.45
2016-11-16T11:03:55.386Z,38.74
2016-11-16T11:05:04.429Z,38.74
2016-11-16T11:06:13.802Z,38.74
2016-11-16T11:07:22.877Z,38.54
2016-11-16T11:08:31.924Z,38.64
2016-11-16T11:09:40.944Z,38.45
2016-11-16T11:10:50.315Z,38.54
2016-11-16T11:11:59.660Z,38.54
2016-11-16T11:13:09.019Z,38.74
2016-11-16T11:14:18.660Z,38.45
2016-11-16T11:15:27.669Z,38.64
2016-11-16T11:16:37.074Z,38.74
2016-11-16T11:17:46.375Z,38.74
2016-11-16T11:18:55.092Z,38.74
2016-11-16T11:20:03.823Z,38.74
2016-11-16T11:21:12.557Z,38.83
2016-11-16T11:22:21.619Z,38.74
2016-11-16T11:23:30.669Z,38.64
2016-11-16T11:24:40.070Z,38.64
2016-11-16T11:25:48.807Z,38.74
2016-11-16T11:26:57.881Z,38.74
2016-11-16T11:28:06.641Z,38.54
2016-11-16T11:29:15.968Z,38.64
2016-11-16T11:30:25.602Z,38.54
2016-11-16T11:31:34.931Z,38.64
2016-11-16T11:32:43.661Z,38.74
2016-11-16T11:33:53.316Z,38.54
2016-11-16T11:35:02.644Z,38.74
2016-11-16T11:36:11.713Z,38.64
2016-11-16T11:37:20.768Z,38.54
2016-11-16T11:38:29.847Z,38.74
2016-11-16T11:39:38.679Z,38.74
2016-11-16T11:40:48.039Z,38.64
2016-11-16T11:41:57.076Z,38.54
2016-11-16T11:43:05.818Z,38.54
2016-11-16T11:44:14.544Z,38.54
2016-11-16T11:45:23.922Z,38.64
2016-11-16T11:46:33.280Z,38.64
2016-11-16T11:47:42.348Z,38.74
2016-11-16T11:48:51.086Z,38.64
2016-11-16T11:50:00.194Z,38.74
2016-11-16T11:51:08.941Z,38.64
2016-11-16T11:52:17.977Z,38.74
2016-11-16T11:53:27.017Z,38.64
2016-11-16T11:54:36.347Z,38.54
2016-11-16T11:55:46.011Z,38.54
2016-11-16T11:56:55.422Z,38.74
2016-11-16T11:58:04.177Z,38.45
2016-11-16T11:59:13.207Z,38.54
2016-11-16T12:00:22.636Z,38.45
2016-11-16T12:01:31.361Z,38.74
2016-11-16T12:02:40.129Z,38.54
2016-11-16T12:03:49.478Z,38.64
2016-11-16T12:04:58.529Z,38.74
2016-11-16T12:06:07.558Z,38.54
2016-11-16T12:07:16.310Z,38.74
2016-11-16T12:08:25.627Z,38.64
2016-11-16T12:09:34.370Z,38.74
2016-11-16T12:10:44.081Z,38.74
2016-11-16T12:11:53.456Z,38.54
2016-11-16T12:13:02.208Z,38.64
2016-11-16T12:14:11.047Z,38.74
2016-11-16T12:15:20.122Z,38.64
2016-11-16T12:16:29.158Z,38.74
2016-11-16T12:17:38.255Z,38.64
2016-11-16T12:18:47.031Z,38.64
2016-11-16T12:19:56.089Z,38.54
2016-11-16T12:21:05.467Z,38.54
2016-11-16T12:22:14.862Z,38.74
2016-11-16T12:23:24.201Z,38.54
2016-11-16T12:24:33.261Z,38.54
2016-11-16T12:25:41.965Z,38.54
2016-11-16T12:26:51.651Z,38.54
2016-11-16T12:28:00.671Z,38.74
2016-11-16T12:29:09.816Z,38.74
2016-11-16T12:30:18.857Z,38.74
2016-11-16T12:31:28.206Z,38.64
2016-11-16T12:32:37.003Z,38.54
2016-11-16T12:33:45.713Z,38.54
2016-11-16T12:34:54.538Z,38.83
2016-11-16T12:36:03.679Z,38.83
2016-11-16T12:37:12.760Z,38.64
2016-11-16T12:38:21.494Z,38.93
2016-11-16T12:39:30.263Z,38.83
2016-11-16T12:40:39.356Z,38.93
2016-11-16T12:41:48.427Z,39.03
2016-11-16T12:42:57.195Z,38.93
2016-11-16T12:44:05.950Z,39.03
2016-11-16T12:45:15.304Z,38.83
2016-11-16T12:46:24.985Z,39.03
2016-11-16T12:47:34.326Z,38.93
2016-11-16T12:48:43.074Z,38.93
2016-11-16T12:49:52.441Z,38.93
2016-11-16T12:51:01.515Z,39.22
2016-11-16T12:52:10.886Z,38.93
2016-11-16T12:53:19.998Z,38.93
2016-11-16T12:54:29.058Z,39.22
2016-11-16T12:55:37.782Z,38.93
2016-11-16T12:56:46.836Z,38.93
2016-11-16T12:57:55.852Z,39.03
2016-11-16T12:59:04.928Z,39.31
2016-11-16T13:00:13.668Z,39.03
2016-11-16T13:01:22.712Z,39.41
2016-11-16T13:02:32.067Z,39.41
2016-11-16T13:03:40.820Z,39.03
2016-11-16T13:04:50.148Z,38.93
2016-11-16T13:05:59.461Z,39.03
2016-11-16T13:07:08.556Z,39.22
2016-11-16T13:08:17.314Z,39.03
2016-11-16T13:09:26.934Z,38.93
2016-11-16T13:10:35.643Z,38.93
2016-11-16T13:11:44.388Z,38.74
2016-11-16T13:12:53.108Z,38.93
2016-11-16T13:14:02.153Z,39.12
2016-11-16T13:15:10.897Z,38.93
2016-11-16T13:16:20.314Z,39.22
2016-11-16T13:17:29.074Z,38.93
2016-11-16T13:18:38.428Z,39.03
2016-11-16T13:19:47.488Z,39.03
2016-11-16T13:20:56.773Z,39.03
2016-11-16T13:22:05.882Z,39.22
2016-11-16T13:23:15.250Z,38.93
2016-11-16T13:24:24.277Z,39.03
2016-11-16T13:25:33.126Z,39.03
2016-11-16T13:26:42.195Z,39.03
2016-11-16T13:27:51.308Z,39.22
2016-11-16T13:29:00.674Z,39.22
2016-11-16T13:30:09.715Z,39.03
2016-11-16T13:31:19.120Z,39.22
2016-11-16T13:32:28.468Z,39.12
2016-11-16T13:33:38.106Z,39.12
2016-11-16T13:34:46.848Z,39.12
2016-11-16T13:35:55.572Z,39.41
2016-11-16T13:37:04.644Z,39.31
2016-11-16T13:38:14.352Z,39.31
2016-11-16T13:39:23.387Z,39.31
2016-11-16T13:40:32.791Z,39.41
2016-11-16T13:41:41.577Z,39.22
2016-11-16T13:42:50.628Z,39.41
2016-11-16T13:44:00.299Z,39.41
2016-11-16T13:45:09.317Z,39.31
2016-11-16T13:46:18.379Z,39.31
2016-11-16T13:47:27.404Z,39.31
2016-11-16T13:48:36.136Z,39.41
2016-11-16T13:49:45.182Z,39.31
2016-11-16T13:50:54.194Z,39.41
2016-11-16T13:52:02.993Z,39.41
2016-11-16T13:53:12.052Z,39.41
2016-11-16T13:54:21.083Z,39.31
2016-11-16T13:55:30.099Z,39.41
2016-11-16T13:56:38.900Z,39.41
2016-11-16T13:57:48.298Z,39.31
2016-11-16T13:58:57.036Z,39.29
2016-11-16T14:00:06.087Z,39.31
2016-11-16T14:01:15.608Z,39.39
2016-11-16T14:02:24.962Z,39.22
2016-11-16T14:03:33.706Z,39.31
2016-11-16T14:04:42.755Z,39.22
2016-11-16T14:05:52.130Z,39.2
2016-11-16T14:07:01.491Z,39.2
2016-11-16T14:08:10.529Z,39.2
2016-11-16T14:09:19.909Z,39.2
2016-11-16T14:10:29.016Z,39.29
2016-11-16T14:11:38.054Z,39.31
2016-11-16T14:12:47.081Z,39.31
2016-11-16T14:13:55.854Z,39.22
2016-11-16T14:15:04.965Z,39.29
2016-11-16T14:16:13.720Z,39.22
2016-11-16T14:17:22.447Z,39.31
2016-11-16T14:18:31.799Z,39.2
2016-11-16T14:19:40.864Z,39.22
2016-11-16T14:20:49.928Z,39.11
2016-11-16T14:21:58.716Z,39.29
2016-11-16T14:23:07.759Z,39.2
2016-11-16T14:24:42.458Z,39.39
2016-11-16T14:25:51.245Z,39.11
2016-11-16T14:26:59.952Z,39.31
2016-11-16T14:28:08.673Z,39.29
2016-11-16T14:29:17.397Z,39.29
2016-11-16T14:30:26.141Z,39.2
2016-11-16T14:31:35.179Z,39.29
2016-11-16T14:32:43.894Z,39.01
2016-11-16T14:33:52.623Z,38.81
2016-11-16T14:35:01.386Z,39.29
2016-11-16T14:36:10.385Z,39.11
2016-11-16T14:37:19.457Z,38.93
2016-11-16T14:38:28.766Z,39.2
2016-11-16T14:39:37.836Z,39.11
2016-11-16T14:40:47.430Z,39.12
2016-11-16T14:41:56.473Z,38.91
2016-11-16T14:43:05.856Z,38.91
2016-11-16T14:44:14.874Z,39.01
2016-11-16T14:45:24.196Z,39.03
2016-11-16T14:46:33.362Z,39.01
2016-11-16T14:47:42.442Z,39.01
2016-11-16T14:48:52.067Z,39.01
2016-11-16T14:50:01.129Z,38.81
2016-11-16T14:51:10.501Z,38.81
2016-11-16T14:52:19.499Z,38.81